Terminal Aerodrome Forecast
Issued by NWS Birmingham, AL

Home | Current Version | Previous Version | Text Only | Print | Product List | Glossary On
Versions: 1 2 3 4 5 6 7 8 9 10 11 12 13 14 15 16 17 18 19 20 21 22 23
000
FTUS44 KBMX 041120
TAFBHM
TAF
KBHM 041120Z 0412/0512 30003KT P6SM FEW250
     FM041400 32010KT P6SM SKC
     FM041800 29015G24KT P6SM SCT250
     FM042100 30015KT P6SM SHRA BKN050
     FM050600 30005G10KT P6SM FEW250=

USA.gov is the U.S. government's official web portal to all federal, state and local government web resources and services.